createdAt,value
2022-12-29T00:24:25.432Z,3.1
2022-12-29T00:54:13.973Z,2.5
2022-12-29T01:24:14.412Z,1.8
2022-12-29T01:54:17.645Z,1.6
2022-12-29T02:24:23.195Z,1.4
2022-12-29T02:54:27.662Z,0.8
2022-12-29T03:24:17.213Z,1
2022-12-29T03:54:17.472Z,1.3
2022-12-29T04:24:17.869Z,1.5
2022-12-29T04:54:18.334Z,1.4
2022-12-29T05:24:19.134Z,1.6
2022-12-29T05:54:19.182Z,1.7
2022-12-29T06:24:19.753Z,1.6
2022-12-29T06:54:20.032Z,1.9
2022-12-29T07:24:20.556Z,1.9
2022-12-29T07:54:23.271Z,2
2022-12-29T08:24:21.921Z,1.8
2022-12-29T08:54:22.196Z,1.7
2022-12-29T09:24:22.662Z,1.7
2022-12-29T09:54:32.584Z,2.8
2022-12-29T10:24:23.795Z,2.8
2022-12-29T10:54:26.200Z,2.1
2022-12-29T11:24:29.121Z,1.6
2022-12-29T11:54:27.511Z,1.4
2022-12-29T12:24:39.635Z,1.6
2022-12-29T12:54:37.721Z,1.5
2022-12-29T13:24:29.997Z,1.4
2022-12-29T13:54:33.483Z,1.1
2022-12-29T14:24:39.668Z,1.4
2022-12-29T14:54:49.968Z,1.9
2022-12-29T15:24:28.553Z,1.9
2022-12-29T15:54:36.700Z,1.6
2022-12-29T16:24:30.684Z,1.9
2022-12-29T16:54:33.363Z,1.8
2022-12-29T17:24:30.770Z,2
2022-12-29T17:54:31.328Z,2.7
2022-12-29T18:24:31.720Z,2.1
2022-12-29T18:54:33.670Z,2.1
2022-12-29T19:24:32.645Z,1.8
2022-12-29T19:54:33.402Z,2.2
2022-12-29T20:24:33.628Z,2.5
2022-12-29T20:54:39.495Z,1.9
2022-12-29T21:24:34.337Z,2.1
2022-12-29T21:54:46.046Z,1.7
2022-12-29T22:24:35.378Z,2
2022-12-29T22:54:35.673Z,1.7
2022-12-29T23:24:35.879Z,1.7
2022-12-29T23:54:36.118Z,1.6
